Apollo Stella — 3FFX3 — position and weather

sailwx.info

Track history (hours):
 
Tides and Currents Weather Stations Pressure Air Temp Water Temp Dewpoint Dewpoint Depression Visibility Wind Speed Wind Dir Waves Ship Positions

Apollo Stella

Last reported at 2018-Feb-09 07:30 UTC. Time now 2018-Feb-19 16:13 UTC.
Position N 35°22' E 139°42'.
Warning: this ship's position is 10 days out of date.

Length 118 m; draft 8.1 m.

Type: Cargo ship. MMSI: 373303000.

Date/timePositionNaut miles runAvg speedWind from/ knotsBaromVisibWave heightAir tempDewpointWater temp
2018-Feb-09 07:30N 35°22' E 139°42'5 0.5
2018-Feb-08 22:00N 35°27' E 139°41'1 1.4
2018-Feb-08 21:30N 35°27' E 139°42'0 0.0
2018-Feb-08 21:00N 35°27' E 139°42'0 0.0
2018-Feb-08 20:30N 35°27' E 139°42'0 0.0
2018-Feb-08 20:00N 35°27' E 139°42'0 0.0
2018-Feb-08 19:30N 35°27' E 139°42'0 0.0
2018-Feb-08 18:30N 35°27' E 139°42'0 0.0
2018-Feb-08 17:30N 35°27' E 139°42'0 0.0
2018-Feb-08 17:00N 35°27' E 139°42'0 0.0
2018-Feb-08 16:30N 35°27' E 139°42'0 0.0
2018-Feb-08 15:00N 35°27' E 139°42'0 0.0
2018-Feb-08 14:30N 35°27' E 139°42'0 0.0
2018-Feb-08 14:00N 35°27' E 139°42'0 0.0
2018-Feb-08 13:30N 35°27' E 139°42'0 0.0
2018-Feb-08 13:00N 35°27' E 139°42'0 0.0
2018-Feb-08 12:30N 35°27' E 139°42'0 0.0
2018-Feb-08 10:30N 35°27' E 139°42'0 0.0
2018-Feb-08 09:30N 35°27' E 139°42'0 0.0
2018-Feb-08 09:00N 35°27' E 139°42'0 0.0
2018-Feb-08 08:30N 35°27' E 139°42'0 0.1
2018-Feb-08 07:00N 35°27' E 139°42'0 0.0
2018-Feb-08 06:30N 35°27' E 139°42'0 0.0
2018-Feb-08 06:00N 35°27' E 139°42'0 0.0
2018-Feb-08 05:30N 35°27' E 139°42'0 0.0
2018-Feb-08 05:00N 35°27' E 139°42'0 0.0
2018-Feb-08 03:30N 35°27' E 139°42'0 0.0
2018-Feb-08 01:30N 35°27' E 139°42'0 0.1
2018-Feb-08 01:00N 35°27' E 139°42'0 0.0
2018-Feb-08 00:30N 35°27' E 139°42'0 0.0
2018-Feb-08 00:00N 35°27' E 139°42'0 0.0
2018-Feb-07 23:30N 35°27' E 139°42'0 0.0
2018-Feb-07 23:00N 35°27' E 139°42'0 0.1
2018-Feb-07 22:30N 35°27' E 139°42'0 0.4
2018-Feb-07 22:00N 35°27' E 139°42'2 3.1
2018-Feb-07 21:31N 35°25' E 139°43'65 5.4
2018-Feb-07 09:30N 34°48' E 138°38'510.0
2018-Feb-07 09:00N 34°53' E 138°36'711.2
2018-Feb-07 08:25N 34°46' E 138°38'3 8.5
2018-Feb-07 08:00N 34°43' E 138°39'611.1
2018-Feb-07 07:30N 34°48' E 138°38'611.4
2018-Feb-07 07:00N 34°54' E 138°36'611.4
2018-Feb-07 06:30N 34°59' E 138°34'3 6.6
2018-Feb-07 06:00N 35°01' E 138°30'0 0.2
2018-Feb-07 05:26N 35°00' E 138°30'0 0.0
2018-Feb-07 04:59N 35°00' E 138°30'0 0.0
2018-Feb-07 04:29N 35°00' E 138°30'0 0.0
2018-Feb-07 03:59N 35°00' E 138°30'0 0.0
2018-Feb-07 03:29N 35°00' E 138°30'0 0.0
2018-Feb-07 02:59N 35°00' E 138°30'0 0.0
2018-Feb-07 02:29N 35°00' E 138°30'0 0.0
2018-Feb-07 01:59N 35°00' E 138°30'0 0.0
2018-Feb-07 01:29N 35°00' E 138°30'0 0.0
2018-Feb-07 00:59N 35°00' E 138°30'0 0.0
2018-Feb-07 00:29N 35°00' E 138°30'0 0.0
2018-Feb-06 23:59N 35°00' E 138°30'0 0.0
2018-Feb-06 23:26N 35°00' E 138°30'0 0.0
2018-Feb-06 22:59N 35°00' E 138°30'0 0.0
2018-Feb-06 22:30N 35°00' E 138°30'0 0.5
2018-Feb-06 22:00N 35°01' E 138°30'2 3.1
2018-Feb-06 21:30N 35°02' E 138°32'2 4.4
2018-Feb-06 21:00N 35°01' E 138°34'2 4.4
2018-Feb-06 20:30N 35°01' E 138°37'2 3.0
2018-Feb-06 20:00N 35°01' E 138°39'1 1.1
2018-Feb-06 19:28N 35°01' E 138°38'1 1.1
2018-Feb-06 18:58N 35°01' E 138°37'1 1.4
2018-Feb-06 18:30N 35°01' E 138°37'0 0.4
2018-Feb-06 17:58N 35°01' E 138°37'1 1.6
2018-Feb-06 17:28N 35°00' E 138°37'1 1.7
2018-Feb-06 16:58N 34°60' E 138°37'1 3.2
2018-Feb-06 16:30N 34°58' E 138°36'610.9
2018-Feb-06 16:00N 34°53' E 138°33'1212.2
2018-Feb-06 15:00N 34°43' E 138°26'612.2
2018-Feb-06 14:29N 34°37' E 138°22'612.1
2018-Feb-06 14:00N 34°33' E 138°18'712.3
2018-Feb-06 13:24N 34°31' E 138°09'613.4
2018-Feb-06 12:56N 34°31' E 138°01'713.9
2018-Feb-06 12:26N 34°30' E 137°53'1014.3
2018-Feb-06 11:46N 34°30' E 137°41'3612.7
2018-Feb-06 08:55N 34°36' E 136°58'610.8
2018-Feb-06 08:22N 34°40' E 137°03'411.2
2018-Feb-06 08:00N 34°42' E 137°07'8 0.8
2018-Feb-05 22:21N 34°49' E 137°13'0 0.3
2018-Feb-05 22:00N 34°49' E 137°13'3 4.3
2018-Feb-05 21:14N 34°46' E 137°13'1 1.7
2018-Feb-05 20:46N 34°45' E 137°12'0 0.1
2018-Feb-05 20:28N 34°45' E 137°12'0 0.0
2018-Feb-05 19:52N 34°45' E 137°12'0 0.0
2018-Feb-05 19:16N 34°45' E 137°12'0 0.1
2018-Feb-05 18:58N 34°45' E 137°12'0 0.0
2018-Feb-05 18:28N 34°45' E 137°12'0 0.1
2018-Feb-05 17:58N 34°45' E 137°12'0 0.1
2018-Feb-05 17:28N 34°45' E 137°12'0 0.1
2018-Feb-05 16:58N 34°45' E 137°12'0 0.0
2018-Feb-05 16:10N 34°45' E 137°12'0 0.0
2018-Feb-05 15:52N 34°45' E 137°12'0 0.1
2018-Feb-05 15:28N 34°45' E 137°12'0 0.1
2018-Feb-05 14:58N 34°45' E 137°12'0 0.0
2018-Feb-05 14:22N 34°45' E 137°12'0 0.1
2018-Feb-05 13:58N 34°45' E 137°12'0 0.1
2018-Feb-05 13:22N 34°45' E 137°12'0 0.0
2018-Feb-05 12:45N 34°45' E 137°12'0 0.1
2018-Feb-05 12:22N 34°45' E 137°12'0 0.4
2018-Feb-05 11:58N 34°45' E 137°12'3 5.6
2018-Feb-05 11:29N 34°43' E 137°09'611.7
2018-Feb-05 11:00N 34°41' E 137°03'1410.5
2018-Feb-05 09:39N 34°46' E 136°47'212.6
2018-Feb-05 09:28N 34°48' E 136°47'612.6
2018-Feb-05 09:00N 34°54' E 136°46'611.8
2018-Feb-05 08:30N 34°60' E 136°47'3 5.1
2018-Feb-05 07:58N 35°02' E 136°49'0 0.0
2018-Feb-05 07:28N 35°02' E 136°49'0 0.0
2018-Feb-05 06:58N 35°02' E 136°49'0 0.0
2018-Feb-05 06:28N 35°02' E 136°49'0 0.0
2018-Feb-05 05:28N 35°02' E 136°49'0 0.0
2018-Feb-05 04:58N 35°02' E 136°49'0 0.0
2018-Feb-05 04:28N 35°02' E 136°49'0 0.0
2018-Feb-05 03:58N 35°02' E 136°49'0 0.0
2018-Feb-05 03:28N 35°02' E 136°49'0 0.0
2018-Feb-05 02:58N 35°02' E 136°49'0 0.0
2018-Feb-05 02:28N 35°02' E 136°49'0 0.0
2018-Feb-05 01:58N 35°02' E 136°49'0 0.0
2018-Feb-05 01:28N 35°02' E 136°49'0 0.0
2018-Feb-05 00:58N 35°02' E 136°49'0 0.0
2018-Feb-05 00:28N 35°02' E 136°49'0 0.0
2018-Feb-04 23:58N 35°02' E 136°49'0 0.0
2018-Feb-04 23:28N 35°02' E 136°49'0 0.0
2018-Feb-04 22:58N 35°02' E 136°49'0 0.0
2018-Feb-04 22:28N 35°02' E 136°49'0 0.0
2018-Feb-04 21:58N 35°02' E 136°49'0 0.0
2018-Feb-04 21:28N 35°02' E 136°49'0 0.0
2018-Feb-04 20:58N 35°02' E 136°49'0 0.0
2018-Feb-04 19:58N 35°02' E 136°49'0 0.0
2018-Feb-04 19:28N 35°02' E 136°49'0 0.0
2018-Feb-04 18:58N 35°02' E 136°49'0 0.0
2018-Feb-04 18:28N 35°02' E 136°49'0 0.0
2018-Feb-04 17:58N 35°02' E 136°49'0 0.0
2018-Feb-04 17:28N 35°02' E 136°49'0 0.0
2018-Feb-04 15:28N 35°02' E 136°49'0 0.0
2018-Feb-04 14:58N 35°02' E 136°49'0 0.0
2018-Feb-04 14:28N 35°02' E 136°49'0 0.0
2018-Feb-04 13:58N 35°02' E 136°49'0 0.0
2018-Feb-04 13:28N 35°02' E 136°49'0 0.0
2018-Feb-04 12:58N 35°02' E 136°49'0 0.0
2018-Feb-04 12:28N 35°02' E 136°49'0 0.0
2018-Feb-04 11:58N 35°02' E 136°49'0 0.0
2018-Feb-04 11:28N 35°02' E 136°49'0 0.0
2018-Feb-04 09:58N 35°02' E 136°49'0 0.0
2018-Feb-04 08:58N 35°02' E 136°49'0 0.0
2018-Feb-04 08:28N 35°02' E 136°49'0 0.0
2018-Feb-04 07:58N 35°02' E 136°49'0 0.0
2018-Feb-04 07:31N 35°02' E 136°49'0 0.0
2018-Feb-04 06:58N 35°02' E 136°49'0 0.0
2018-Feb-04 06:28N 35°02' E 136°49'0 0.0
2018-Feb-04 06:01N 35°02' E 136°49'0 0.0
2018-Feb-04 05:30N 35°02' E 136°49'2 3.0
2018-Feb-04 05:01N 35°01' E 136°48'2 4.9
2018-Feb-04 04:30N 34°59' E 136°46'2 4.2
2018-Feb-04 04:00N 34°57' E 136°45'1 2.3
2018-Feb-04 03:31N 34°56' E 136°46'4 7.3
2018-Feb-04 03:00N 34°52' E 136°47'5 9.6
2018-Feb-04 02:30N 34°48' E 136°47'5 9.4
2018-Feb-04 02:00N 34°43' E 136°49'5 9.2
2018-Feb-04 01:30N 34°40' E 136°52'610.4
2018-Feb-04 00:58N 34°36' E 136°57'5 9.7
2018-Feb-04 00:28N 34°33' E 137°02'111 8.1
2018-Feb-03 10:45N 33°52' E 134°57'312.3
2018-Feb-03 10:30N 33°55' E 134°56'612.8
2018-Feb-03 10:01N 34°01' E 134°57'712.9
2018-Feb-03 09:30N 34°08' E 134°58'713.4
2018-Feb-03 09:00N 34°15' E 134°58'612.9
2018-Feb-03 08:31N 34°21' E 135°00'713.0
2018-Feb-03 08:00N 34°25' E 135°06'1510.3
2018-Feb-03 06:30N 34°31' E 135°23'0 0.4
2018-Feb-03 06:01N 34°31' E 135°23'0 0.0
2018-Feb-03 05:27N 34°31' E 135°23'0 0.0
2018-Feb-03 04:58N 34°31' E 135°23'0 0.0
2018-Feb-03 04:01N 34°31' E 135°23'0 0.0
2018-Feb-03 03:31N 34°31' E 135°23'0 0.0
2018-Feb-03 02:00N 34°31' E 135°23'0 0.0
2018-Feb-03 01:27N 34°31' E 135°23'0 0.0
2018-Feb-03 00:58N 34°31' E 135°23'0 0.0
2018-Feb-03 00:30N 34°31' E 135°23'0 0.0
2018-Feb-02 23:58N 34°31' E 135°23'0 0.0
2018-Feb-02 23:27N 34°31' E 135°23'0 0.0
2018-Feb-02 23:00N 34°31' E 135°23'0 0.0
2018-Feb-02 22:27N 34°31' E 135°23'0 0.0
2018-Feb-02 21:58N 34°31' E 135°23'0 0.0
2018-Feb-02 21:27N 34°31' E 135°23'0 0.0
2018-Feb-02 21:00N 34°31' E 135°23'0 0.0
2018-Feb-02 20:27N 34°31' E 135°23'0 0.0
2018-Feb-02 20:01N 34°31' E 135°23'0 0.0
2018-Feb-02 19:00N 34°31' E 135°23'0 0.0
2018-Feb-02 18:30N 34°31' E 135°23'0 0.0
2018-Feb-02 18:00N 34°31' E 135°23'0 0.0
2018-Feb-02 17:30N 34°31' E 135°23'0 0.0
2018-Feb-02 16:57N 34°31' E 135°23'0 0.0
2018-Feb-02 16:27N 34°31' E 135°23'0 0.0
2018-Feb-02 15:30N 34°31' E 135°23'0 0.0
2018-Feb-02 14:30N 34°31' E 135°23'0 0.0
2018-Feb-02 14:00N 34°31' E 135°23'0 0.0
2018-Feb-02 13:27N 34°31' E 135°23'0 0.0
2018-Feb-02 13:00N 34°31' E 135°23'0 0.0
2018-Feb-02 12:27N 34°31' E 135°23'0 0.0
2018-Feb-02 11:57N 34°31' E 135°23'0 0.0
2018-Feb-02 11:30N 34°31' E 135°23'0 0.0
2018-Feb-02 11:00N 34°31' E 135°23'0 0.0
2018-Feb-02 10:30N 34°31' E 135°23'0 0.0
2018-Feb-02 10:00N 34°31' E 135°23'0 0.0
2018-Feb-02 09:30N 34°31' E 135°23'0 0.0
2018-Feb-02 09:00N 34°31' E 135°23'0 0.0
2018-Feb-02 08:30N 34°31' E 135°23'0 0.0
2018-Feb-02 08:00N 34°31' E 135°23'0 0.0
2018-Feb-02 07:30N 34°31' E 135°23'0 0.0
2018-Feb-02 06:57N 34°31' E 135°23'0 0.0
2018-Feb-02 06:30N 34°31' E 135°23'0 0.0
2018-Feb-02 06:00N 34°31' E 135°23'0 0.0
2018-Feb-02 05:30N 34°31' E 135°23'0 0.0
2018-Feb-02 05:00N 34°31' E 135°23'0 0.0
2018-Feb-02 04:30N 34°31' E 135°23'0 0.0
2018-Feb-02 04:00N 34°31' E 135°23'0 0.0
2018-Feb-02 03:30N 34°31' E 135°23'0 0.0
2018-Feb-02 03:00N 34°31' E 135°23'0 0.0
2018-Feb-02 02:30N 34°31' E 135°23'0 0.0
2018-Feb-02 02:00N 34°31' E 135°23'0 0.0
2018-Feb-02 01:30N 34°31' E 135°23'0 0.0
2018-Feb-02 00:57N 34°31' E 135°23'0 0.0
2018-Feb-02 00:30N 34°31' E 135°23'0 0.0
2018-Feb-01 23:57N 34°31' E 135°23'0 0.0
2018-Feb-01 23:30N 34°31' E 135°23'0 0.0
2018-Feb-01 23:00N 34°31' E 135°23'0 0.0
2018-Feb-01 22:00N 34°31' E 135°23'0 0.0
2018-Feb-01 21:30N 34°31' E 135°23'0 0.0
2018-Feb-01 19:30N 34°31' E 135°23'0 0.0
2018-Feb-01 19:00N 34°31' E 135°23'0 0.0
2018-Feb-01 18:27N 34°31' E 135°23'0 0.0
2018-Feb-01 18:00N 34°31' E 135°23'0 0.0
2018-Feb-01 17:30N 34°31' E 135°23'0 0.0
2018-Feb-01 17:00N 34°31' E 135°23'0 0.0
2018-Feb-01 16:30N 34°31' E 135°23'0 0.0
2018-Feb-01 16:00N 34°31' E 135°23'0 0.0
2018-Feb-01 15:30N 34°31' E 135°23'0 0.0
2018-Feb-01 15:00N 34°31' E 135°23'0 0.0
2018-Feb-01 13:30N 34°31' E 135°23'0 0.0
2018-Feb-01 13:00N 34°31' E 135°23'0 0.0
2018-Feb-01 12:30N 34°31' E 135°23'0 0.0
2018-Feb-01 12:00N 34°31' E 135°23'0 0.0
2018-Feb-01 10:57N 34°31' E 135°23'0 0.0
2018-Feb-01 10:30N 34°31' E 135°23'0 0.0
2018-Feb-01 10:00N 34°31' E 135°23'0 0.0
2018-Feb-01 09:30N 34°31' E 135°23'0 0.0
2018-Feb-01 09:00N 34°31' E 135°23'0 0.0
2018-Feb-01 08:30N 34°31' E 135°23'0 0.0
2018-Feb-01 07:30N 34°31' E 135°23'0 0.0
2018-Feb-01 07:00N 34°31' E 135°23'0 0.0
2018-Feb-01 06:30N 34°31' E 135°23'0 0.0
2018-Feb-01 05:57N 34°31' E 135°23'0 0.0
2018-Feb-01 05:30N 34°31' E 135°23'0 0.0
2018-Feb-01 05:00N 34°31' E 135°23'0 0.0
2018-Feb-01 04:30N 34°31' E 135°23'0 0.0
2018-Feb-01 04:00N 34°31' E 135°23'0 0.0
2018-Feb-01 03:00N 34°31' E 135°23'0 0.0
2018-Feb-01 02:30N 34°31' E 135°23'0 0.0
2018-Feb-01 02:00N 34°31' E 135°23'0 0.0
2018-Feb-01 01:24N 34°31' E 135°23'0 0.0
2018-Feb-01 00:42N 34°31' E 135°23'0 0.0
2018-Feb-01 00:30N 34°31' E 135°23'0 0.0
2018-Feb-01 00:00N 34°31' E 135°23'0 0.0
2018-Jan-31 23:00N 34°31' E 135°23'0 0.1
2018-Jan-31 22:30N 34°31' E 135°23'1 0.9
2018-Jan-31 21:00N 34°32' E 135°22'0 0.2
2018-Jan-31 20:30N 34°32' E 135°22'0 0.0
2018-Jan-31 20:00N 34°32' E 135°22'0 0.0
2018-Jan-31 19:30N 34°32' E 135°22'0 0.0
2018-Jan-31 19:00N 34°32' E 135°22'0 0.0
2018-Jan-31 18:30N 34°31' E 135°22'0 0.0
2018-Jan-31 18:00N 34°31' E 135°22'0 0.0
2018-Jan-31 17:30N 34°31' E 135°22'0 0.0
2018-Jan-31 17:00N 34°31' E 135°22'0 0.0
2018-Jan-31 16:30N 34°31' E 135°22'0 0.0
2018-Jan-31 16:00N 34°31' E 135°22'0 0.0
2018-Jan-31 15:30N 34°31' E 135°22'0 0.0
2018-Jan-31 15:00N 34°31' E 135°22'0 0.0
2018-Jan-31 14:30N 34°31' E 135°22'0 0.0
2018-Jan-31 13:00N 34°32' E 135°22'0 0.0
2018-Jan-31 12:30N 34°32' E 135°22'0 0.0
2018-Jan-31 12:00N 34°32' E 135°22'0 0.0
2018-Jan-31 11:30N 34°32' E 135°22'0 0.1
2018-Jan-31 11:00N 34°32' E 135°22'0 0.0
2018-Jan-31 10:30N 34°32' E 135°22'0 0.0
2018-Jan-31 10:00N 34°32' E 135°22'0 0.0
2018-Jan-31 09:30N 34°32' E 135°22'0 0.0
2018-Jan-31 09:00N 34°32' E 135°22'0 0.2
2018-Jan-31 08:30N 34°32' E 135°22'0 0.2
2018-Jan-31 08:00N 34°31' E 135°22'2 5.0
2018-Jan-31 07:31N 34°32' E 135°19'611.6
2018-Jan-31 07:01N 34°34' E 135°12'714.3
2018-Jan-31 06:30N 34°35' E 135°04'714.2
2018-Jan-31 06:00N 34°35' E 134°55'714.6
2018-Jan-31 05:30N 34°32' E 134°47'713.3
2018-Jan-31 05:00N 34°30' E 134°40'713.5
2018-Jan-31 04:30N 34°27' E 134°32'713.5
2018-Jan-31 04:00N 34°24' E 134°24'713.6
2018-Jan-31 03:30N 34°24' E 134°16'814.1
2018-Jan-31 02:58N 34°26' E 134°07'7112.4
2018-Jan-30 21:13N 34°02' E 132°46'314.6
2018-Jan-30 21:01N 33°59' E 132°44'813.9
2018-Jan-30 20:26N 33°54' E 132°37'613.6
2018-Jan-30 20:00N 33°49' E 132°32'613.2
2018-Jan-30 19:30N 33°46' E 132°26'713.0
2018-Jan-30 18:57N 33°44' E 132°17'2212.5
2018-Jan-30 17:12N 33°43' E 131°51'313.2
2018-Jan-30 17:00N 33°43' E 131°48'714.0
2018-Jan-30 16:30N 33°46' E 131°40'813.9
2018-Jan-30 15:58N 33°47' E 131°31'613.7
2018-Jan-30 15:31N 33°48' E 131°24'713.9
2018-Jan-30 15:00N 33°50' E 131°16'713.7
2018-Jan-30 14:31N 33°53' E 131°08'1010.3
2018-Jan-30 13:31N 33°57' E 130°57'3 6.6
2018-Jan-30 13:00N 33°55' E 130°53'510.1
2018-Jan-30 12:31N 33°59' E 130°50'611.5
2018-Jan-30 12:00N 34°02' E 130°44'613.1
2018-Jan-30 11:30N 34°01' E 130°37'1313.2
2018-Jan-30 10:31N 33°56' E 130°22'1212.1
2018-Jan-30 09:30N 33°45' E 130°14'612.1
2018-Jan-30 09:01N 33°40' E 130°17'611.3
2018-Jan-30 08:31N 33°37' E 130°23'1 2.0
2018-Jan-30 07:58N 33°36' E 130°24'  
Track history (hours):
 
Tides and Currents Weather Stations Pressure Air Temp Water Temp Dewpoint Dewpoint Depression Visibility Wind Speed Wind Dir Waves Ship Positions

Apollo Stella

Last reported at 2018-Feb-09 07:30 UTC. Time now 2018-Feb-19 16:13 UTC.
Position N 35°22' E 139°42'.
Warning: this ship's position is 10 days out of date.

Length 118 m; draft 8.1 m.

Type: Cargo ship. MMSI: 373303000.

Date/timePositionNaut miles runAvg speedWind from/ knotsBaromVisibWave heightAir tempDewpointWater temp
2018-Feb-09 07:30N 35°22' E 139°42'5 0.5
2018-Feb-08 22:00N 35°27' E 139°41'1 1.4
2018-Feb-08 21:30N 35°27' E 139°42'0 0.0
2018-Feb-08 21:00N 35°27' E 139°42'0 0.0
2018-Feb-08 20:30N 35°27' E 139°42'0 0.0
2018-Feb-08 20:00N 35°27' E 139°42'0 0.0
2018-Feb-08 19:30N 35°27' E 139°42'0 0.0
2018-Feb-08 18:30N 35°27' E 139°42'0 0.0
2018-Feb-08 17:30N 35°27' E 139°42'0 0.0
2018-Feb-08 17:00N 35°27' E 139°42'0 0.0
2018-Feb-08 16:30N 35°27' E 139°42'0 0.0
2018-Feb-08 15:00N 35°27' E 139°42'0 0.0
2018-Feb-08 14:30N 35°27' E 139°42'0 0.0
2018-Feb-08 14:00N 35°27' E 139°42'0 0.0
2018-Feb-08 13:30N 35°27' E 139°42'0 0.0
2018-Feb-08 13:00N 35°27' E 139°42'0 0.0
2018-Feb-08 12:30N 35°27' E 139°42'0 0.0
2018-Feb-08 10:30N 35°27' E 139°42'0 0.0
2018-Feb-08 09:30N 35°27' E 139°42'0 0.0
2018-Feb-08 09:00N 35°27' E 139°42'0 0.0
2018-Feb-08 08:30N 35°27' E 139°42'0 0.1
2018-Feb-08 07:00N 35°27' E 139°42'0 0.0
2018-Feb-08 06:30N 35°27' E 139°42'0 0.0
2018-Feb-08 06:00N 35°27' E 139°42'0 0.0
2018-Feb-08 05:30N 35°27' E 139°42'0 0.0
2018-Feb-08 05:00N 35°27' E 139°42'0 0.0
2018-Feb-08 03:30N 35°27' E 139°42'0 0.0
2018-Feb-08 01:30N 35°27' E 139°42'0 0.1
2018-Feb-08 01:00N 35°27' E 139°42'0 0.0
2018-Feb-08 00:30N 35°27' E 139°42'0 0.0
2018-Feb-08 00:00N 35°27' E 139°42'0 0.0
2018-Feb-07 23:30N 35°27' E 139°42'0 0.0
2018-Feb-07 23:00N 35°27' E 139°42'0 0.1
2018-Feb-07 22:30N 35°27' E 139°42'0 0.4
2018-Feb-07 22:00N 35°27' E 139°42'2 3.1
2018-Feb-07 21:31N 35°25' E 139°43'65 5.4
2018-Feb-07 09:30N 34°48' E 138°38'510.0
2018-Feb-07 09:00N 34°53' E 138°36'711.2
2018-Feb-07 08:25N 34°46' E 138°38'3 8.5
2018-Feb-07 08:00N 34°43' E 138°39'611.1
2018-Feb-07 07:30N 34°48' E 138°38'611.4
2018-Feb-07 07:00N 34°54' E 138°36'611.4
2018-Feb-07 06:30N 34°59' E 138°34'3 6.6
2018-Feb-07 06:00N 35°01' E 138°30'0 0.2
2018-Feb-07 05:26N 35°00' E 138°30'0 0.0
2018-Feb-07 04:59N 35°00' E 138°30'0 0.0
2018-Feb-07 04:29N 35°00' E 138°30'0 0.0
2018-Feb-07 03:59N 35°00' E 138°30'0 0.0
2018-Feb-07 03:29N 35°00' E 138°30'0 0.0
2018-Feb-07 02:59N 35°00' E 138°30'0 0.0
2018-Feb-07 02:29N 35°00' E 138°30'0 0.0
2018-Feb-07 01:59N 35°00' E 138°30'0 0.0
2018-Feb-07 01:29N 35°00' E 138°30'0 0.0
2018-Feb-07 00:59N 35°00' E 138°30'0 0.0
2018-Feb-07 00:29N 35°00' E 138°30'0 0.0
2018-Feb-06 23:59N 35°00' E 138°30'0 0.0
2018-Feb-06 23:26N 35°00' E 138°30'0 0.0
2018-Feb-06 22:59N 35°00' E 138°30'0 0.0
2018-Feb-06 22:30N 35°00' E 138°30'0 0.5
2018-Feb-06 22:00N 35°01' E 138°30'2 3.1
2018-Feb-06 21:30N 35°02' E 138°32'2 4.4
2018-Feb-06 21:00N 35°01' E 138°34'2 4.4
2018-Feb-06 20:30N 35°01' E 138°37'2 3.0
2018-Feb-06 20:00N 35°01' E 138°39'1 1.1
2018-Feb-06 19:28N 35°01' E 138°38'1 1.1
2018-Feb-06 18:58N 35°01' E 138°37'1 1.4
2018-Feb-06 18:30N 35°01' E 138°37'0 0.4
2018-Feb-06 17:58N 35°01' E 138°37'1 1.6
2018-Feb-06 17:28N 35°00' E 138°37'1 1.7
2018-Feb-06 16:58N 34°60' E 138°37'1 3.2
2018-Feb-06 16:30N 34°58' E 138°36'610.9
2018-Feb-06 16:00N 34°53' E 138°33'1212.2
2018-Feb-06 15:00N 34°43' E 138°26'612.2
2018-Feb-06 14:29N 34°37' E 138°22'612.1
2018-Feb-06 14:00N 34°33' E 138°18'712.3
2018-Feb-06 13:24N 34°31' E 138°09'613.4
2018-Feb-06 12:56N 34°31' E 138°01'713.9
2018-Feb-06 12:26N 34°30' E 137°53'1014.3
2018-Feb-06 11:46N 34°30' E 137°41'3612.7
2018-Feb-06 08:55N 34°36' E 136°58'610.8
2018-Feb-06 08:22N 34°40' E 137°03'411.2
2018-Feb-06 08:00N 34°42' E 137°07'8 0.8
2018-Feb-05 22:21N 34°49' E 137°13'0 0.3
2018-Feb-05 22:00N 34°49' E 137°13'3 4.3
2018-Feb-05 21:14N 34°46' E 137°13'1 1.7
2018-Feb-05 20:46N 34°45' E 137°12'0 0.1
2018-Feb-05 20:28N 34°45' E 137°12'0 0.0
2018-Feb-05 19:52N 34°45' E 137°12'0 0.0
2018-Feb-05 19:16N 34°45' E 137°12'0 0.1
2018-Feb-05 18:58N 34°45' E 137°12'0 0.0
2018-Feb-05 18:28N 34°45' E 137°12'0 0.1
2018-Feb-05 17:58N 34°45' E 137°12'0 0.1
2018-Feb-05 17:28N 34°45' E 137°12'0 0.1
2018-Feb-05 16:58N 34°45' E 137°12'0 0.0
2018-Feb-05 16:10N 34°45' E 137°12'0 0.0
2018-Feb-05 15:52N 34°45' E 137°12'0 0.1
2018-Feb-05 15:28N 34°45' E 137°12'0 0.1
2018-Feb-05 14:58N 34°45' E 137°12'0 0.0
2018-Feb-05 14:22N 34°45' E 137°12'0 0.1
2018-Feb-05 13:58N 34°45' E 137°12'0 0.1
2018-Feb-05 13:22N 34°45' E 137°12'0 0.0
2018-Feb-05 12:45N 34°45' E 137°12'0 0.1
2018-Feb-05 12:22N 34°45' E 137°12'0 0.4
2018-Feb-05 11:58N 34°45' E 137°12'3 5.6
2018-Feb-05 11:29N 34°43' E 137°09'611.7
2018-Feb-05 11:00N 34°41' E 137°03'1410.5
2018-Feb-05 09:39N 34°46' E 136°47'212.6
2018-Feb-05 09:28N 34°48' E 136°47'612.6
2018-Feb-05 09:00N 34°54' E 136°46'611.8
2018-Feb-05 08:30N 34°60' E 136°47'3 5.1
2018-Feb-05 07:58N 35°02' E 136°49'0 0.0
2018-Feb-05 07:28N 35°02' E 136°49'0 0.0
2018-Feb-05 06:58N 35°02' E 136°49'0 0.0
2018-Feb-05 06:28N 35°02' E 136°49'0 0.0
2018-Feb-05 05:28N 35°02' E 136°49'0 0.0
2018-Feb-05 04:58N 35°02' E 136°49'0 0.0
2018-Feb-05 04:28N 35°02' E 136°49'0 0.0
2018-Feb-05 03:58N 35°02' E 136°49'0 0.0
2018-Feb-05 03:28N 35°02' E 136°49'0 0.0
2018-Feb-05 02:58N 35°02' E 136°49'0 0.0
2018-Feb-05 02:28N 35°02' E 136°49'0 0.0
2018-Feb-05 01:58N 35°02' E 136°49'0 0.0
2018-Feb-05 01:28N 35°02' E 136°49'0 0.0
2018-Feb-05 00:58N 35°02' E 136°49'0 0.0
2018-Feb-05 00:28N 35°02' E 136°49'0 0.0
2018-Feb-04 23:58N 35°02' E 136°49'0 0.0
2018-Feb-04 23:28N 35°02' E 136°49'0 0.0
2018-Feb-04 22:58N 35°02' E 136°49'0 0.0
2018-Feb-04 22:28N 35°02' E 136°49'0 0.0
2018-Feb-04 21:58N 35°02' E 136°49'0 0.0
2018-Feb-04 21:28N 35°02' E 136°49'0 0.0
2018-Feb-04 20:58N 35°02' E 136°49'0 0.0
2018-Feb-04 19:58N 35°02' E 136°49'0 0.0
2018-Feb-04 19:28N 35°02' E 136°49'0 0.0
2018-Feb-04 18:58N 35°02' E 136°49'0 0.0
2018-Feb-04 18:28N 35°02' E 136°49'0 0.0
2018-Feb-04 17:58N 35°02' E 136°49'0 0.0
2018-Feb-04 17:28N 35°02' E 136°49'0 0.0
2018-Feb-04 15:28N 35°02' E 136°49'0 0.0
2018-Feb-04 14:58N 35°02' E 136°49'0 0.0
2018-Feb-04 14:28N 35°02' E 136°49'0 0.0
2018-Feb-04 13:58N 35°02' E 136°49'0 0.0
2018-Feb-04 13:28N 35°02' E 136°49'0 0.0
2018-Feb-04 12:58N 35°02' E 136°49'0 0.0
2018-Feb-04 12:28N 35°02' E 136°49'0 0.0
2018-Feb-04 11:58N 35°02' E 136°49'0 0.0
2018-Feb-04 11:28N 35°02' E 136°49'0 0.0
2018-Feb-04 09:58N 35°02' E 136°49'0 0.0
2018-Feb-04 08:58N 35°02' E 136°49'0 0.0
2018-Feb-04 08:28N 35°02' E 136°49'0 0.0
2018-Feb-04 07:58N 35°02' E 136°49'0 0.0
2018-Feb-04 07:31N 35°02' E 136°49'0 0.0
2018-Feb-04 06:58N 35°02' E 136°49'0 0.0
2018-Feb-04 06:28N 35°02' E 136°49'0 0.0
2018-Feb-04 06:01N 35°02' E 136°49'0 0.0
2018-Feb-04 05:30N 35°02' E 136°49'2 3.0
2018-Feb-04 05:01N 35°01' E 136°48'2 4.9
2018-Feb-04 04:30N 34°59' E 136°46'2 4.2
2018-Feb-04 04:00N 34°57' E 136°45'1 2.3
2018-Feb-04 03:31N 34°56' E 136°46'4 7.3
2018-Feb-04 03:00N 34°52' E 136°47'5 9.6
2018-Feb-04 02:30N 34°48' E 136°47'5 9.4
2018-Feb-04 02:00N 34°43' E 136°49'5 9.2
2018-Feb-04 01:30N 34°40' E 136°52'610.4
2018-Feb-04 00:58N 34°36' E 136°57'5 9.7
2018-Feb-04 00:28N 34°33' E 137°02'111 8.1
2018-Feb-03 10:45N 33°52' E 134°57'312.3
2018-Feb-03 10:30N 33°55' E 134°56'612.8
2018-Feb-03 10:01N 34°01' E 134°57'712.9
2018-Feb-03 09:30N 34°08' E 134°58'713.4
2018-Feb-03 09:00N 34°15' E 134°58'612.9
2018-Feb-03 08:31N 34°21' E 135°00'713.0
2018-Feb-03 08:00N 34°25' E 135°06'1510.3
2018-Feb-03 06:30N 34°31' E 135°23'0 0.4
2018-Feb-03 06:01N 34°31' E 135°23'0 0.0
2018-Feb-03 05:27N 34°31' E 135°23'0 0.0
2018-Feb-03 04:58N 34°31' E 135°23'0 0.0
2018-Feb-03 04:01N 34°31' E 135°23'0 0.0
2018-Feb-03 03:31N 34°31' E 135°23'0 0.0
2018-Feb-03 02:00N 34°31' E 135°23'0 0.0
2018-Feb-03 01:27N 34°31' E 135°23'0 0.0
2018-Feb-03 00:58N 34°31' E 135°23'0 0.0
2018-Feb-03 00:30N 34°31' E 135°23'0 0.0
2018-Feb-02 23:58N 34°31' E 135°23'0 0.0
2018-Feb-02 23:27N 34°31' E 135°23'0 0.0
2018-Feb-02 23:00N 34°31' E 135°23'0 0.0
2018-Feb-02 22:27N 34°31' E 135°23'0 0.0
2018-Feb-02 21:58N 34°31' E 135°23'0 0.0
2018-Feb-02 21:27N 34°31' E 135°23'0 0.0
2018-Feb-02 21:00N 34°31' E 135°23'0 0.0
2018-Feb-02 20:27N 34°31' E 135°23'0 0.0
2018-Feb-02 20:01N 34°31' E 135°23'0 0.0
2018-Feb-02 19:00N 34°31' E 135°23'0 0.0
2018-Feb-02 18:30N 34°31' E 135°23'0 0.0
2018-Feb-02 18:00N 34°31' E 135°23'0 0.0
2018-Feb-02 17:30N 34°31' E 135°23'0 0.0
2018-Feb-02 16:57N 34°31' E 135°23'0 0.0
2018-Feb-02 16:27N 34°31' E 135°23'0 0.0
2018-Feb-02 15:30N 34°31' E 135°23'0 0.0
2018-Feb-02 14:30N 34°31' E 135°23'0 0.0
2018-Feb-02 14:00N 34°31' E 135°23'0 0.0
2018-Feb-02 13:27N 34°31' E 135°23'0 0.0
2018-Feb-02 13:00N 34°31' E 135°23'0 0.0
2018-Feb-02 12:27N 34°31' E 135°23'0 0.0
2018-Feb-02 11:57N 34°31' E 135°23'0 0.0
2018-Feb-02 11:30N 34°31' E 135°23'0 0.0
2018-Feb-02 11:00N 34°31' E 135°23'0 0.0
2018-Feb-02 10:30N 34°31' E 135°23'0 0.0
2018-Feb-02 10:00N 34°31' E 135°23'0 0.0
2018-Feb-02 09:30N 34°31' E 135°23'0 0.0
2018-Feb-02 09:00N 34°31' E 135°23'0 0.0
2018-Feb-02 08:30N 34°31' E 135°23'0 0.0
2018-Feb-02 08:00N 34°31' E 135°23'0 0.0
2018-Feb-02 07:30N 34°31' E 135°23'0 0.0
2018-Feb-02 06:57N 34°31' E 135°23'0 0.0
2018-Feb-02 06:30N 34°31' E 135°23'0 0.0
2018-Feb-02 06:00N 34°31' E 135°23'0 0.0
2018-Feb-02 05:30N 34°31' E 135°23'0 0.0
2018-Feb-02 05:00N 34°31' E 135°23'0 0.0
2018-Feb-02 04:30N 34°31' E 135°23'0 0.0
2018-Feb-02 04:00N 34°31' E 135°23'0 0.0
2018-Feb-02 03:30N 34°31' E 135°23'0 0.0
2018-Feb-02 03:00N 34°31' E 135°23'0 0.0
2018-Feb-02 02:30N 34°31' E 135°23'0 0.0
2018-Feb-02 02:00N 34°31' E 135°23'0 0.0
2018-Feb-02 01:30N 34°31' E 135°23'0 0.0
2018-Feb-02 00:57N 34°31' E 135°23'0 0.0
2018-Feb-02 00:30N 34°31' E 135°23'0 0.0
2018-Feb-01 23:57N 34°31' E 135°23'0 0.0
2018-Feb-01 23:30N 34°31' E 135°23'0 0.0
2018-Feb-01 23:00N 34°31' E 135°23'0 0.0
2018-Feb-01 22:00N 34°31' E 135°23'0 0.0
2018-Feb-01 21:30N 34°31' E 135°23'0 0.0
2018-Feb-01 19:30N 34°31' E 135°23'0 0.0
2018-Feb-01 19:00N 34°31' E 135°23'0 0.0
2018-Feb-01 18:27N 34°31' E 135°23'0 0.0
2018-Feb-01 18:00N 34°31' E 135°23'0 0.0
2018-Feb-01 17:30N 34°31' E 135°23'0 0.0
2018-Feb-01 17:00N 34°31' E 135°23'0 0.0
2018-Feb-01 16:30N 34°31' E 135°23'0 0.0
2018-Feb-01 16:00N 34°31' E 135°23'0 0.0
2018-Feb-01 15:30N 34°31' E 135°23'0 0.0
2018-Feb-01 15:00N 34°31' E 135°23'0 0.0
2018-Feb-01 13:30N 34°31' E 135°23'0 0.0
2018-Feb-01 13:00N 34°31' E 135°23'0 0.0
2018-Feb-01 12:30N 34°31' E 135°23'0 0.0
2018-Feb-01 12:00N 34°31' E 135°23'0 0.0
2018-Feb-01 10:57N 34°31' E 135°23'0 0.0
2018-Feb-01 10:30N 34°31' E 135°23'0 0.0
2018-Feb-01 10:00N 34°31' E 135°23'0 0.0
2018-Feb-01 09:30N 34°31' E 135°23'0 0.0
2018-Feb-01 09:00N 34°31' E 135°23'0 0.0
2018-Feb-01 08:30N 34°31' E 135°23'0 0.0
2018-Feb-01 07:30N 34°31' E 135°23'0 0.0
2018-Feb-01 07:00N 34°31' E 135°23'0 0.0
2018-Feb-01 06:30N 34°31' E 135°23'0 0.0
2018-Feb-01 05:57N 34°31' E 135°23'0 0.0
2018-Feb-01 05:30N 34°31' E 135°23'0 0.0
2018-Feb-01 05:00N 34°31' E 135°23'0 0.0
2018-Feb-01 04:30N 34°31' E 135°23'0 0.0
2018-Feb-01 04:00N 34°31' E 135°23'0 0.0
2018-Feb-01 03:00N 34°31' E 135°23'0 0.0
2018-Feb-01 02:30N 34°31' E 135°23'0 0.0
2018-Feb-01 02:00N 34°31' E 135°23'0 0.0
2018-Feb-01 01:24N 34°31' E 135°23'0 0.0
2018-Feb-01 00:42N 34°31' E 135°23'0 0.0
2018-Feb-01 00:30N 34°31' E 135°23'0 0.0
2018-Feb-01 00:00N 34°31' E 135°23'0 0.0
2018-Jan-31 23:00N 34°31' E 135°23'0 0.1
2018-Jan-31 22:30N 34°31' E 135°23'1 0.9
2018-Jan-31 21:00N 34°32' E 135°22'0 0.2
2018-Jan-31 20:30N 34°32' E 135°22'0 0.0
2018-Jan-31 20:00N 34°32' E 135°22'0 0.0
2018-Jan-31 19:30N 34°32' E 135°22'0 0.0
2018-Jan-31 19:00N 34°32' E 135°22'0 0.0
2018-Jan-31 18:30N 34°31' E 135°22'0 0.0
2018-Jan-31 18:00N 34°31' E 135°22'0 0.0
2018-Jan-31 17:30N 34°31' E 135°22'0 0.0
2018-Jan-31 17:00N 34°31' E 135°22'0 0.0
2018-Jan-31 16:30N 34°31' E 135°22'0 0.0
2018-Jan-31 16:00N 34°31' E 135°22'0 0.0
2018-Jan-31 15:30N 34°31' E 135°22'0 0.0
2018-Jan-31 15:00N 34°31' E 135°22'0 0.0
2018-Jan-31 14:30N 34°31' E 135°22'0 0.0
2018-Jan-31 13:00N 34°32' E 135°22'0 0.0
2018-Jan-31 12:30N 34°32' E 135°22'0 0.0
2018-Jan-31 12:00N 34°32' E 135°22'0 0.0
2018-Jan-31 11:30N 34°32' E 135°22'0 0.1
2018-Jan-31 11:00N 34°32' E 135°22'0 0.0
2018-Jan-31 10:30N 34°32' E 135°22'0 0.0
2018-Jan-31 10:00N 34°32' E 135°22'0 0.0
2018-Jan-31 09:30N 34°32' E 135°22'0 0.0
2018-Jan-31 09:00N 34°32' E 135°22'0 0.2
2018-Jan-31 08:30N 34°32' E 135°22'0 0.2
2018-Jan-31 08:00N 34°31' E 135°22'2 5.0
2018-Jan-31 07:31N 34°32' E 135°19'611.6
2018-Jan-31 07:01N 34°34' E 135°12'714.3
2018-Jan-31 06:30N 34°35' E 135°04'714.2
2018-Jan-31 06:00N 34°35' E 134°55'714.6
2018-Jan-31 05:30N 34°32' E 134°47'713.3
2018-Jan-31 05:00N 34°30' E 134°40'713.5
2018-Jan-31 04:30N 34°27' E 134°32'713.5
2018-Jan-31 04:00N 34°24' E 134°24'713.6
2018-Jan-31 03:30N 34°24' E 134°16'814.1
2018-Jan-31 02:58N 34°26' E 134°07'7112.4
2018-Jan-30 21:13N 34°02' E 132°46'314.6
2018-Jan-30 21:01N 33°59' E 132°44'813.9
2018-Jan-30 20:26N 33°54' E 132°37'613.6
2018-Jan-30 20:00N 33°49' E 132°32'613.2
2018-Jan-30 19:30N 33°46' E 132°26'713.0
2018-Jan-30 18:57N 33°44' E 132°17'2212.5
2018-Jan-30 17:12N 33°43' E 131°51'313.2
2018-Jan-30 17:00N 33°43' E 131°48'714.0
2018-Jan-30 16:30N 33°46' E 131°40'813.9
2018-Jan-30 15:58N 33°47' E 131°31'613.7
2018-Jan-30 15:31N 33°48' E 131°24'713.9
2018-Jan-30 15:00N 33°50' E 131°16'713.7
2018-Jan-30 14:31N 33°53' E 131°08'1010.3
2018-Jan-30 13:31N 33°57' E 130°57'3 6.6
2018-Jan-30 13:00N 33°55' E 130°53'510.1
2018-Jan-30 12:31N 33°59' E 130°50'611.5
2018-Jan-30 12:00N 34°02' E 130°44'613.1
2018-Jan-30 11:30N 34°01' E 130°37'1313.2
2018-Jan-30 10:31N 33°56' E 130°22'1212.1
2018-Jan-30 09:30N 33°45' E 130°14'612.1
2018-Jan-30 09:01N 33°40' E 130°17'611.3
2018-Jan-30 08:31N 33°37' E 130°23'1 2.0
2018-Jan-30 07:58N 33°36' E 130°24'  

Dump ship's entire track history